首页
METAR-TAF:

METAR-TAF

机场 :

山胡桃, 北卡罗来纳州, 美国

纬度: 35-44-32N, 经度: 081-22-56W, 海拔: 362米

当前天气观测

该预报发布于5分钟前的14:11 UTC
风速8节,风向东北
温度 12°C
湿度 100%
气压 1014 hPa
能見度: 4.0公里
阴天层高于500英尺
小雨, 轻雾

METAR: KHKY 241411Z 05008KT 2 1/2SM -RA BR OVC005 12/12 A2993 RMK AO2 CIG 004V009 P0001 T01220117

时间: 10:16 (14:16 UTC)

预报

该预报发布于2小时和46分钟前的11:30 UTC
预报有效从24日的 12点(UTC)到 25日的 12点(UTC)
风速9节,风向东转东北
能見度: 3.2公里
阴天层高于300英尺
小阵雨, 轻雾
短暂存在
从 24日的 12点(UTC)到 24日的 15点(UTC)
能見度: 1.6公里
小阵雨, 轻雾
从 24日的 1500点(UTC)
风速8节,风向东北
能見度: 1.6公里
阴天层高于400英尺
小阵雨, 轻雾
从 24日的 2000点(UTC)
风速6节,风向北转东北
能見度: 6.4公里
阴天层高于600英尺
小阵雨, 轻雾
从 25日的 0300点(UTC)
风速4节,风向北转西北
能見度: 4.8公里
阴天层高于400英尺
轻雾, 附近有阵雨
从 25日的 1000点(UTC)
风速3节,风向西转西北
能見度: 3.2公里
散云层高于500英尺
阴天层高于1500英尺
轻雾

TAF: KHKY 241130Z 2412/2512 06009KT 2SM -SHRA BR OVC003 TEMPO 2412/2415 1SM -SHRA BR FM241500 05008KT 1SM -SHRA BR OVC004 FM242000 03006KT 4SM -SHRA BR OVC006 FM250300 34004KT 3SM BR VCSH OVC004 FM251000 29003KT 2SM BR SCT005 OVC015

超过4000个机场的气象观测和天气预报(METAR&TAF报告)。

可查询的气象台以黄色和红色小点在地图上表示。

将鼠标移到小点上方,可查看气象台名称。

然后点击查看天气观测和预报。

如需切换地图:点击带黑十字的绿色按钮放大地图;点击带横线的绿色按钮缩小地图;或者点击绿色箭头查看邻近地区的地图。


METAR-TAF: